sensor_id;sensor_type;location;lat;lon;timestamp;temperature;humidity
14771;DHT22;7477;45.222;5.688;2023-03-12T00:02:57;11.20;99.90
14771;DHT22;7477;45.222;5.688;2023-03-12T00:06:17;11.20;99.90
14771;DHT22;7477;45.222;5.688;2023-03-12T00:09:37;11.20;99.90
14771;DHT22;7477;45.222;5.688;2023-03-12T00:12:57;11.10;99.90
14771;DHT22;7477;45.222;5.688;2023-03-12T00:16:16;11.10;99.90
14771;DHT22;7477;45.222;5.688;2023-03-12T00:19:36;11.10;99.90
14771;DHT22;7477;45.222;5.688;2023-03-12T00:22:55;11.10;99.90
14771;DHT22;7477;45.222;5.688;2023-03-12T00:26:15;11.10;99.90
14771;DHT22;7477;45.222;5.688;2023-03-12T00:29:34;11.10;99.90
14771;DHT22;7477;45.222;5.688;2023-03-12T00:32:54;11.10;99.90
14771;DHT22;7477;45.222;5.688;2023-03-12T00:36:13;11.10;99.90
14771;DHT22;7477;45.222;5.688;2023-03-12T00:39:32;11.10;99.90
14771;DHT22;7477;45.222;5.688;2023-03-12T00:42:51;11.10;99.90
14771;DHT22;7477;45.222;5.688;2023-03-12T00:46:11;11.10;99.90
14771;DHT22;7477;45.222;5.688;2023-03-12T00:49:30;11.10;99.90
14771;DHT22;7477;45.222;5.688;2023-03-12T00:52:50;11.10;99.90
14771;DHT22;7477;45.222;5.688;2023-03-12T00:56:09;11.10;99.90
14771;DHT22;7477;45.222;5.688;2023-03-12T00:59:28;11.10;99.90
14771;DHT22;7477;45.222;5.688;2023-03-12T01:02:47;11.00;99.90
14771;DHT22;7477;45.222;5.688;2023-03-12T01:06:06;11.00;99.90
14771;DHT22;7477;45.222;5.688;2023-03-12T01:09:25;11.00;99.90
14771;DHT22;7477;45.222;5.688;2023-03-12T01:12:46;11.00;99.90
14771;DHT22;7477;45.222;5.688;2023-03-12T01:16:06;11.00;99.90
14771;DHT22;7477;45.222;5.688;2023-03-12T01:19:25;11.00;99.90
14771;DHT22;7477;45.222;5.688;2023-03-12T01:22:44;11.00;99.90
14771;DHT22;7477;45.222;5.688;2023-03-12T01:26:03;10.90;99.90
14771;DHT22;7477;45.222;5.688;2023-03-12T01:29:23;10.90;99.90
14771;DHT22;7477;45.222;5.688;2023-03-12T01:32:42;10.90;99.90
14771;DHT22;7477;45.222;5.688;2023-03-12T01:36:01;10.90;99.90
14771;DHT22;7477;45.222;5.688;2023-03-12T01:39:20;10.90;99.90
14771;DHT22;7477;45.222;5.688;2023-03-12T01:42:40;10.90;99.90
14771;DHT22;7477;45.222;5.688;2023-03-12T01:46:05;10.90;99.90
14771;DHT22;7477;45.222;5.688;2023-03-12T01:49:28;10.80;99.90
14771;DHT22;7477;45.222;5.688;2023-03-12T01:52:48;10.80;99.90
14771;DHT22;7477;45.222;5.688;2023-03-12T01:56:08;10.80;99.90
14771;DHT22;7477;45.222;5.688;2023-03-12T01:59:36;10.80;99.90
14771;DHT22;7477;45.222;5.688;2023-03-12T02:03:05;10.80;99.90
14771;DHT22;7477;45.222;5.688;2023-03-12T02:06:37;10.80;99.90
14771;DHT22;7477;45.222;5.688;2023-03-12T02:09:59;10.70;99.90
14771;DHT22;7477;45.222;5.688;2023-03-12T02:13:18;10.70;99.90
14771;DHT22;7477;45.222;5.688;2023-03-12T02:16:38;10.70;99.90
14771;DHT22;7477;45.222;5.688;2023-03-12T02:27:35;10.70;99.90
14771;DHT22;7477;45.222;5.688;2023-03-12T02:31:02;10.80;99.90
14771;DHT22;7477;45.222;5.688;2023-03-12T02:34:22;10.80;99.90
14771;DHT22;7477;45.222;5.688;2023-03-12T02:37:53;10.80;99.90
14771;DHT22;7477;45.222;5.688;2023-03-12T02:44:32;10.80;99.90
14771;DHT22;7477;45.222;5.688;2023-03-12T02:47:52;10.80;99.90
14771;DHT22;7477;45.222;5.688;2023-03-12T02:51:11;10.80;99.90
14771;DHT22;7477;45.222;5.688;2023-03-12T02:54:31;10.80;99.90
14771;DHT22;7477;45.222;5.688;2023-03-12T02:57:50;10.80;99.90
14771;DHT22;7477;45.222;5.688;2023-03-12T03:01:09;10.80;99.90
14771;DHT22;7477;45.222;5.688;2023-03-12T03:04:29;10.80;99.90
14771;DHT22;7477;45.222;5.688;2023-03-12T03:07:49;10.80;99.90
14771;DHT22;7477;45.222;5.688;2023-03-12T03:11:08;10.80;99.90
14771;DHT22;7477;45.222;5.688;2023-03-12T03:14:28;10.80;99.90
14771;DHT22;7477;45.222;5.688;2023-03-12T03:17:47;10.80;99.90
14771;DHT22;7477;45.222;5.688;2023-03-12T03:21:07;10.80;99.90
14771;DHT22;7477;45.222;5.688;2023-03-12T03:24:27;10.80;99.90
14771;DHT22;7477;45.222;5.688;2023-03-12T03:27:46;10.80;99.90
14771;DHT22;7477;45.222;5.688;2023-03-12T03:31:06;10.80;99.90
14771;DHT22;7477;45.222;5.688;2023-03-12T03:34:26;10.80;99.90
14771;DHT22;7477;45.222;5.688;2023-03-12T03:37:45;10.80;99.90
14771;DHT22;7477;45.222;5.688;2023-03-12T03:41:04;10.70;99.90
14771;DHT22;7477;45.222;5.688;2023-03-12T03:44:23;10.70;99.90
14771;DHT22;7477;45.222;5.688;2023-03-12T03:47:43;10.80;99.90
14771;DHT22;7477;45.222;5.688;2023-03-12T03:51:03;10.70;99.90
14771;DHT22;7477;45.222;5.688;2023-03-12T03:54:23;10.70;99.90
14771;DHT22;7477;45.222;5.688;2023-03-12T03:57:42;10.70;99.90
14771;DHT22;7477;45.222;5.688;2023-03-12T04:01:02;10.60;99.90
14771;DHT22;7477;45.222;5.688;2023-03-12T04:04:21;10.60;99.90
14771;DHT22;7477;45.222;5.688;2023-03-12T04:07:41;10.70;99.90
14771;DHT22;7477;45.222;5.688;2023-03-12T04:11:06;10.70;99.90
14771;DHT22;7477;45.222;5.688;2023-03-12T04:14:26;10.70;99.90
14771;DHT22;7477;45.222;5.688;2023-03-12T04:17:46;10.60;99.90
14771;DHT22;7477;45.222;5.688;2023-03-12T04:21:07;10.60;99.90
14771;DHT22;7477;45.222;5.688;2023-03-12T04:24:27;10.60;99.90
14771;DHT22;7477;45.222;5.688;2023-03-12T04:27:46;10.60;99.90
14771;DHT22;7477;45.222;5.688;2023-03-12T04:31:06;10.60;99.90
14771;DHT22;7477;45.222;5.688;2023-03-12T04:34:26;10.60;99.90
14771;DHT22;7477;45.222;5.688;2023-03-12T04:37:45;10.60;99.90
14771;DHT22;7477;45.222;5.688;2023-03-12T04:41:12;10.60;99.90
14771;DHT22;7477;45.222;5.688;2023-03-12T04:44:32;10.60;99.90
14771;DHT22;7477;45.222;5.688;2023-03-12T04:47:51;10.60;99.90
14771;DHT22;7477;45.222;5.688;2023-03-12T04:51:11;10.60;99.90
14771;DHT22;7477;45.222;5.688;2023-03-12T04:54:30;10.60;99.90
14771;DHT22;7477;45.222;5.688;2023-03-12T04:57:50;10.60;99.90
14771;DHT22;7477;45.222;5.688;2023-03-12T05:01:36;10.60;99.90
14771;DHT22;7477;45.222;5.688;2023-03-12T05:04:56;10.50;99.90
14771;DHT22;7477;45.222;5.688;2023-03-12T05:08:15;10.50;99.90
14771;DHT22;7477;45.222;5.688;2023-03-12T05:11:34;10.50;99.90
14771;DHT22;7477;45.222;5.688;2023-03-12T05:14:53;10.50;99.90
14771;DHT22;7477;45.222;5.688;2023-03-12T05:18:13;10.60;99.90
14771;DHT22;7477;45.222;5.688;2023-03-12T05:21:32;10.60;99.90
14771;DHT22;7477;45.222;5.688;2023-03-12T05:24:52;10.60;99.90
14771;DHT22;7477;45.222;5.688;2023-03-12T05:28:11;10.60;99.90
14771;DHT22;7477;45.222;5.688;2023-03-12T05:31:30;10.60;99.90
14771;DHT22;7477;45.222;5.688;2023-03-12T05:34:53;10.60;99.90
14771;DHT22;7477;45.222;5.688;2023-03-12T05:38:12;10.60;99.90
14771;DHT22;7477;45.222;5.688;2023-03-12T05:41:31;10.60;99.90
14771;DHT22;7477;45.222;5.688;2023-03-12T05:44:51;10.60;99.90
14771;DHT22;7477;45.222;5.688;2023-03-12T05:48:10;10.60;99.90
14771;DHT22;7477;45.222;5.688;2023-03-12T05:51:30;10.60;99.90
14771;DHT22;7477;45.222;5.688;2023-03-12T05:54:51;10.60;99.90
14771;DHT22;7477;45.222;5.688;2023-03-12T05:58:10;10.60;99.90
14771;DHT22;7477;45.222;5.688;2023-03-12T06:01:30;10.60;99.90
14771;DHT22;7477;45.222;5.688;2023-03-12T06:04:50;10.60;99.90
14771;DHT22;7477;45.222;5.688;2023-03-12T06:08:09;10.60;99.90
14771;DHT22;7477;45.222;5.688;2023-03-12T06:11:28;10.60;99.90
14771;DHT22;7477;45.222;5.688;2023-03-12T06:14:48;10.60;99.90
14771;DHT22;7477;45.222;5.688;2023-03-12T06:18:07;10.60;99.90
14771;DHT22;7477;45.222;5.688;2023-03-12T06:21:31;10.60;99.90
14771;DHT22;7477;45.222;5.688;2023-03-12T06:24:51;10.50;99.90
14771;DHT22;7477;45.222;5.688;2023-03-12T06:28:10;10.50;99.90
14771;DHT22;7477;45.222;5.688;2023-03-12T06:31:30;10.60;99.90
14771;DHT22;7477;45.222;5.688;2023-03-12T06:34:49;10.50;99.90
14771;DHT22;7477;45.222;5.688;2023-03-12T06:38:08;10.50;99.90
14771;DHT22;7477;45.222;5.688;2023-03-12T06:41:27;10.50;99.90
14771;DHT22;7477;45.222;5.688;2023-03-12T06:44:48;10.60;99.90
14771;DHT22;7477;45.222;5.688;2023-03-12T06:48:08;10.60;99.90
14771;DHT22;7477;45.222;5.688;2023-03-12T06:51:27;10.60;99.90
14771;DHT22;7477;45.222;5.688;2023-03-12T06:54:46;10.70;99.90
14771;DHT22;7477;45.222;5.688;2023-03-12T06:58:05;10.70;99.90
14771;DHT22;7477;45.222;5.688;2023-03-12T07:01:25;10.60;99.90
14771;DHT22;7477;45.222;5.688;2023-03-12T07:04:44;10.70;99.90
14771;DHT22;7477;45.222;5.688;2023-03-12T07:08:03;10.70;99.90
14771;DHT22;7477;45.222;5.688;2023-03-12T07:11:22;10.70;99.90
14771;DHT22;7477;45.222;5.688;2023-03-12T07:14:41;10.80;99.90
14771;DHT22;7477;45.222;5.688;2023-03-12T07:18:09;10.80;99.90
14771;DHT22;7477;45.222;5.688;2023-03-12T07:21:28;10.80;99.90
14771;DHT22;7477;45.222;5.688;2023-03-12T07:24:49;10.80;99.90
14771;DHT22;7477;45.222;5.688;2023-03-12T07:28:10;10.80;99.90
14771;DHT22;7477;45.222;5.688;2023-03-12T07:31:29;10.90;99.90
14771;DHT22;7477;45.222;5.688;2023-03-12T07:34:49;10.90;99.90
14771;DHT22;7477;45.222;5.688;2023-03-12T07:38:08;10.90;99.90
14771;DHT22;7477;45.222;5.688;2023-03-12T07:41:27;11.00;99.90
14771;DHT22;7477;45.222;5.688;2023-03-12T07:44:47;10.90;99.90
14771;DHT22;7477;45.222;5.688;2023-03-12T07:48:06;11.00;99.90
14771;DHT22;7477;45.222;5.688;2023-03-12T07:51:26;11.00;99.90
14771;DHT22;7477;45.222;5.688;2023-03-12T07:54:45;11.00;99.90
14771;DHT22;7477;45.222;5.688;2023-03-12T07:58:05;11.00;99.90
14771;DHT22;7477;45.222;5.688;2023-03-12T08:01:24;11.00;99.90
14771;DHT22;7477;45.222;5.688;2023-03-12T08:04:50;11.00;99.90
14771;DHT22;7477;45.222;5.688;2023-03-12T08:08:09;11.00;99.90
14771;DHT22;7477;45.222;5.688;2023-03-12T08:11:29;11.00;99.90
14771;DHT22;7477;45.222;5.688;2023-03-12T08:14:49;11.00;99.90
14771;DHT22;7477;45.222;5.688;2023-03-12T08:18:08;11.10;99.90
14771;DHT22;7477;45.222;5.688;2023-03-12T08:21:27;11.20;99.90
14771;DHT22;7477;45.222;5.688;2023-03-12T08:24:47;11.20;99.90
14771;DHT22;7477;45.222;5.688;2023-03-12T08:28:06;11.20;99.90
14771;DHT22;7477;45.222;5.688;2023-03-12T08:31:26;11.20;99.90
14771;DHT22;7477;45.222;5.688;2023-03-12T08:34:46;11.20;99.90
14771;DHT22;7477;45.222;5.688;2023-03-12T08:38:05;11.30;99.90
14771;DHT22;7477;45.222;5.688;2023-03-12T08:41:24;11.30;99.90
14771;DHT22;7477;45.222;5.688;2023-03-12T08:44:43;11.30;99.90
14771;DHT22;7477;45.222;5.688;2023-03-12T08:48:05;11.20;99.90
14771;DHT22;7477;45.222;5.688;2023-03-12T08:51:25;11.20;99.90
14771;DHT22;7477;45.222;5.688;2023-03-12T08:54:44;11.20;99.90
14771;DHT22;7477;45.222;5.688;2023-03-12T08:58:03;11.20;99.90
14771;DHT22;7477;45.222;5.688;2023-03-12T09:01:22;11.20;99.90
14771;DHT22;7477;45.222;5.688;2023-03-12T09:04:47;11.30;99.90
14771;DHT22;7477;45.222;5.688;2023-03-12T09:08:07;11.40;99.90
14771;DHT22;7477;45.222;5.688;2023-03-12T09:11:26;11.30;99.90
14771;DHT22;7477;45.222;5.688;2023-03-12T09:14:46;11.40;99.90
14771;DHT22;7477;45.222;5.688;2023-03-12T09:18:05;11.50;99.90
14771;DHT22;7477;45.222;5.688;2023-03-12T09:21:24;11.50;99.90
14771;DHT22;7477;45.222;5.688;2023-03-12T09:24:43;11.60;99.90
14771;DHT22;7477;45.222;5.688;2023-03-12T09:28:02;11.70;99.90
14771;DHT22;7477;45.222;5.688;2023-03-12T09:31:22;11.80;99.90
14771;DHT22;7477;45.222;5.688;2023-03-12T09:34:41;11.80;99.90
14771;DHT22;7477;45.222;5.688;2023-03-12T09:38:00;11.80;99.90
14771;DHT22;7477;45.222;5.688;2023-03-12T09:41:24;11.90;99.90
14771;DHT22;7477;45.222;5.688;2023-03-12T09:44:44;12.00;99.90
14771;DHT22;7477;45.222;5.688;2023-03-12T09:48:09;12.20;99.90
14771;DHT22;7477;45.222;5.688;2023-03-12T09:51:36;12.40;99.90
14771;DHT22;7477;45.222;5.688;2023-03-12T09:55:06;12.50;99.90
14771;DHT22;7477;45.222;5.688;2023-03-12T09:58:30;12.60;99.90
14771;DHT22;7477;45.222;5.688;2023-03-12T10:01:54;12.60;99.90
14771;DHT22;7477;45.222;5.688;2023-03-12T10:05:30;12.60;99.90
14771;DHT22;7477;45.222;5.688;2023-03-12T10:24:14;12.90;99.90
14771;DHT22;7477;45.222;5.688;2023-03-12T10:27:35;12.80;99.90
14771;DHT22;7477;45.222;5.688;2023-03-12T10:30:58;12.80;99.90
14771;DHT22;7477;45.222;5.688;2023-03-12T10:38:21;12.90;99.90
14771;DHT22;7477;45.222;5.688;2023-03-12T10:41:46;13.00;99.90
14771;DHT22;7477;45.222;5.688;2023-03-12T10:48:27;13.20;99.90
14771;DHT22;7477;45.222;5.688;2023-03-12T10:52:02;13.30;99.90
14771;DHT22;7477;45.222;5.688;2023-03-12T10:55:25;13.40;99.90
14771;DHT22;7477;45.222;5.688;2023-03-12T10:58:50;13.40;99.90
14771;DHT22;7477;45.222;5.688;2023-03-12T11:02:32;13.50;99.90
14771;DHT22;7477;45.222;5.688;2023-03-12T11:05:55;13.60;99.90
14771;DHT22;7477;45.222;5.688;2023-03-12T11:09:18;13.60;99.90
14771;DHT22;7477;45.222;5.688;2023-03-12T11:12:38;13.70;99.90
14771;DHT22;7477;45.222;5.688;2023-03-12T11:16:24;13.70;99.90
14771;DHT22;7477;45.222;5.688;2023-03-12T11:19:46;13.90;99.90
14771;DHT22;7477;45.222;5.688;2023-03-12T11:23:29;14.10;99.90
14771;DHT22;7477;45.222;5.688;2023-03-12T11:26:51;14.10;99.90
14771;DHT22;7477;45.222;5.688;2023-03-12T11:30:15;14.10;99.90
14771;DHT22;7477;45.222;5.688;2023-03-12T11:33:35;14.20;99.90
14771;DHT22;7477;45.222;5.688;2023-03-12T11:54:53;14.40;99.90
14771;DHT22;7477;45.222;5.688;2023-03-12T12:17:12;14.60;99.90
14771;DHT22;7477;45.222;5.688;2023-03-12T12:21:01;14.70;99.90
14771;DHT22;7477;45.222;5.688;2023-03-12T12:31:58;14.90;99.90
14771;DHT22;7477;45.222;5.688;2023-03-12T12:38:53;14.90;99.90
14771;DHT22;7477;45.222;5.688;2023-03-12T12:42:20;14.90;99.90
14771;DHT22;7477;45.222;5.688;2023-03-12T12:45:41;14.90;99.90
14771;DHT22;7477;45.222;5.688;2023-03-12T12:49:09;15.00;99.90
14771;DHT22;7477;45.222;5.688;2023-03-12T12:52:29;15.10;99.90
14771;DHT22;7477;45.222;5.688;2023-03-12T12:55:57;15.20;99.90
14771;DHT22;7477;45.222;5.688;2023-03-12T13:02:43;15.30;99.90
14771;DHT22;7477;45.222;5.688;2023-03-12T13:06:06;15.30;99.90
14771;DHT22;7477;45.222;5.688;2023-03-12T13:09:39;15.20;99.90
14771;DHT22;7477;45.222;5.688;2023-03-12T13:13:02;15.30;99.90
14771;DHT22;7477;45.222;5.688;2023-03-12T13:16:39;15.30;99.90
14771;DHT22;7477;45.222;5.688;2023-03-12T13:20:11;15.40;99.90
14771;DHT22;7477;45.222;5.688;2023-03-12T13:33:55;15.50;99.90
14771;DHT22;7477;45.222;5.688;2023-03-12T13:37:26;15.50;99.90
14771;DHT22;7477;45.222;5.688;2023-03-12T13:40:58;15.50;99.90
14771;DHT22;7477;45.222;5.688;2023-03-12T13:44:31;15.50;99.90
14771;DHT22;7477;45.222;5.688;2023-03-12T13:47:59;15.60;99.90
14771;DHT22;7477;45.222;5.688;2023-03-12T13:51:22;15.70;99.90
14771;DHT22;7477;45.222;5.688;2023-03-12T13:54:47;15.60;99.90
14771;DHT22;7477;45.222;5.688;2023-03-12T13:58:15;15.40;99.90
14771;DHT22;7477;45.222;5.688;2023-03-12T14:01:41;15.80;99.90
14771;DHT22;7477;45.222;5.688;2023-03-12T14:05:06;15.80;99.90
14771;DHT22;7477;45.222;5.688;2023-03-12T14:13:06;16.00;99.90
14771;DHT22;7477;45.222;5.688;2023-03-12T14:19:46;16.00;99.90
14771;DHT22;7477;45.222;5.688;2023-03-12T14:23:08;16.10;99.90
14771;DHT22;7477;45.222;5.688;2023-03-12T14:26:34;16.20;99.90
14771;DHT22;7477;45.222;5.688;2023-03-12T14:30:03;16.20;99.90
14771;DHT22;7477;45.222;5.688;2023-03-12T14:33:29;16.40;99.90
14771;DHT22;7477;45.222;5.688;2023-03-12T14:40:24;16.60;99.90
14771;DHT22;7477;45.222;5.688;2023-03-12T14:43:45;16.70;99.90
14771;DHT22;7477;45.222;5.688;2023-03-12T14:47:07;16.70;99.90
14771;DHT22;7477;45.222;5.688;2023-03-12T14:50:37;16.70;99.90
14771;DHT22;7477;45.222;5.688;2023-03-12T14:54:01;16.80;99.90
14771;DHT22;7477;45.222;5.688;2023-03-12T14:57:21;17.00;99.90
14771;DHT22;7477;45.222;5.688;2023-03-12T15:00:43;17.00;99.90
14771;DHT22;7477;45.222;5.688;2023-03-12T15:04:06;17.20;99.90
14771;DHT22;7477;45.222;5.688;2023-03-12T15:07:36;17.10;99.90
14771;DHT22;7477;45.222;5.688;2023-03-12T15:10:57;17.10;99.90
14771;DHT22;7477;45.222;5.688;2023-03-12T15:14:17;17.10;99.90
14771;DHT22;7477;45.222;5.688;2023-03-12T15:17:36;17.10;99.90
14771;DHT22;7477;45.222;5.688;2023-03-12T15:20:57;16.90;99.90
14771;DHT22;7477;45.222;5.688;2023-03-12T15:24:17;16.90;99.90
14771;DHT22;7477;45.222;5.688;2023-03-12T15:27:37;16.90;99.90
14771;DHT22;7477;45.222;5.688;2023-03-12T15:31:08;17.00;99.80
14771;DHT22;7477;45.222;5.688;2023-03-12T15:34:35;17.00;99.90
14771;DHT22;7477;45.222;5.688;2023-03-12T15:37:54;17.00;99.80
14771;DHT22;7477;45.222;5.688;2023-03-12T15:41:19;17.10;99.70
14771;DHT22;7477;45.222;5.688;2023-03-12T15:44:51;17.30;99.60
14771;DHT22;7477;45.222;5.688;2023-03-12T15:48:39;17.40;99.50
14771;DHT22;7477;45.222;5.688;2023-03-12T15:55:26;17.30;99.90
14771;DHT22;7477;45.222;5.688;2023-03-12T15:58:46;17.60;98.80
14771;DHT22;7477;45.222;5.688;2023-03-12T16:02:10;17.50;99.50
14771;DHT22;7477;45.222;5.688;2023-03-12T16:05:32;17.20;99.90
14771;DHT22;7477;45.222;5.688;2023-03-12T16:08:56;17.30;99.90
14771;DHT22;7477;45.222;5.688;2023-03-12T16:12:15;18.10;98.30
14771;DHT22;7477;45.222;5.688;2023-03-12T16:15:38;18.10;98.00
14771;DHT22;7477;45.222;5.688;2023-03-12T16:18:59;18.20;97.80
14771;DHT22;7477;45.222;5.688;2023-03-12T16:22:18;18.00;98.10
14771;DHT22;7477;45.222;5.688;2023-03-12T16:25:41;17.70;97.80
14771;DHT22;7477;45.222;5.688;2023-03-12T16:29:01;17.50;98.20
14771;DHT22;7477;45.222;5.688;2023-03-12T16:32:21;17.30;98.10
14771;DHT22;7477;45.222;5.688;2023-03-12T16:35:41;17.10;98.50
14771;DHT22;7477;45.222;5.688;2023-03-12T16:39:00;16.90;98.60
14771;DHT22;7477;45.222;5.688;2023-03-12T16:42:20;16.70;99.10
14771;DHT22;7477;45.222;5.688;2023-03-12T16:45:42;16.60;98.90
14771;DHT22;7477;45.222;5.688;2023-03-12T16:49:02;16.60;98.80
14771;DHT22;7477;45.222;5.688;2023-03-12T16:52:23;16.50;98.80
14771;DHT22;7477;45.222;5.688;2023-03-12T16:55:56;16.40;98.70
14771;DHT22;7477;45.222;5.688;2023-03-12T16:59:23;16.40;98.90
14771;DHT22;7477;45.222;5.688;2023-03-12T17:02:43;16.30;99.30
14771;DHT22;7477;45.222;5.688;2023-03-12T17:06:04;16.20;99.60
14771;DHT22;7477;45.222;5.688;2023-03-12T17:09:24;16.20;99.70
14771;DHT22;7477;45.222;5.688;2023-03-12T17:12:44;16.10;99.70
14771;DHT22;7477;45.222;5.688;2023-03-12T17:16:03;16.00;99.90
14771;DHT22;7477;45.222;5.688;2023-03-12T17:19:23;15.90;99.90
14771;DHT22;7477;45.222;5.688;2023-03-12T17:22:42;15.90;99.90
14771;DHT22;7477;45.222;5.688;2023-03-12T17:26:02;15.80;99.90
14771;DHT22;7477;45.222;5.688;2023-03-12T17:29:22;15.70;99.90
14771;DHT22;7477;45.222;5.688;2023-03-12T17:32:42;15.60;99.90
14771;DHT22;7477;45.222;5.688;2023-03-12T17:36:03;15.60;99.90
14771;DHT22;7477;45.222;5.688;2023-03-12T17:39:24;15.50;99.90
14771;DHT22;7477;45.222;5.688;2023-03-12T17:42:44;15.50;99.90
14771;DHT22;7477;45.222;5.688;2023-03-12T17:46:04;15.40;99.90
14771;DHT22;7477;45.222;5.688;2023-03-12T17:49:24;15.40;99.90
14771;DHT22;7477;45.222;5.688;2023-03-12T17:52:44;15.30;99.90
14771;DHT22;7477;45.222;5.688;2023-03-12T17:56:05;15.20;99.90
14771;DHT22;7477;45.222;5.688;2023-03-12T17:59:24;15.10;99.90
14771;DHT22;7477;45.222;5.688;2023-03-12T18:02:43;15.10;99.90
14771;DHT22;7477;45.222;5.688;2023-03-12T18:06:03;15.00;99.90
14771;DHT22;7477;45.222;5.688;2023-03-12T18:09:22;14.90;99.90
14771;DHT22;7477;45.222;5.688;2023-03-12T18:12:42;14.90;99.90
14771;DHT22;7477;45.222;5.688;2023-03-12T18:16:01;14.70;99.90
14771;DHT22;7477;45.222;5.688;2023-03-12T18:19:20;14.60;99.90
14771;DHT22;7477;45.222;5.688;2023-03-12T18:22:41;14.60;99.90
14771;DHT22;7477;45.222;5.688;2023-03-12T18:26:02;14.60;99.90
14771;DHT22;7477;45.222;5.688;2023-03-12T18:29:22;14.50;99.90
14771;DHT22;7477;45.222;5.688;2023-03-12T18:32:41;14.40;99.90
14771;DHT22;7477;45.222;5.688;2023-03-12T18:36:00;14.30;99.90
14771;DHT22;7477;45.222;5.688;2023-03-12T18:39:20;14.30;99.90
14771;DHT22;7477;45.222;5.688;2023-03-12T18:42:40;14.20;99.90
14771;DHT22;7477;45.222;5.688;2023-03-12T18:46:02;14.10;99.90
14771;DHT22;7477;45.222;5.688;2023-03-12T18:49:21;14.00;99.90
14771;DHT22;7477;45.222;5.688;2023-03-12T18:52:41;13.90;99.90
14771;DHT22;7477;45.222;5.688;2023-03-12T18:56:02;13.90;99.90
14771;DHT22;7477;45.222;5.688;2023-03-12T18:59:22;13.80;99.90
14771;DHT22;7477;45.222;5.688;2023-03-12T19:02:41;13.80;99.90
14771;DHT22;7477;45.222;5.688;2023-03-12T19:06:06;13.80;99.90
14771;DHT22;7477;45.222;5.688;2023-03-12T19:09:26;13.80;99.90
14771;DHT22;7477;45.222;5.688;2023-03-12T19:12:45;13.70;99.90
14771;DHT22;7477;45.222;5.688;2023-03-12T19:16:07;13.70;99.90
14771;DHT22;7477;45.222;5.688;2023-03-12T19:19:27;13.70;99.90
14771;DHT22;7477;45.222;5.688;2023-03-12T19:22:46;13.70;99.90
14771;DHT22;7477;45.222;5.688;2023-03-12T19:26:05;13.60;99.90
14771;DHT22;7477;45.222;5.688;2023-03-12T19:29:25;13.50;99.90
14771;DHT22;7477;45.222;5.688;2023-03-12T19:32:44;13.50;99.90
14771;DHT22;7477;45.222;5.688;2023-03-12T19:36:04;13.40;99.90
14771;DHT22;7477;45.222;5.688;2023-03-12T19:39:23;13.30;99.90
14771;DHT22;7477;45.222;5.688;2023-03-12T19:42:43;13.30;99.90
14771;DHT22;7477;45.222;5.688;2023-03-12T19:46:03;13.20;99.90
14771;DHT22;7477;45.222;5.688;2023-03-12T19:49:23;13.20;99.90
14771;DHT22;7477;45.222;5.688;2023-03-12T19:52:43;13.10;99.90
14771;DHT22;7477;45.222;5.688;2023-03-12T19:56:03;13.00;99.90
14771;DHT22;7477;45.222;5.688;2023-03-12T19:59:22;13.00;99.90
14771;DHT22;7477;45.222;5.688;2023-03-12T20:02:42;12.90;99.90
14771;DHT22;7477;45.222;5.688;2023-03-12T20:06:07;12.90;99.90
14771;DHT22;7477;45.222;5.688;2023-03-12T20:09:27;12.80;99.90
14771;DHT22;7477;45.222;5.688;2023-03-12T20:12:46;12.80;99.90
14771;DHT22;7477;45.222;5.688;2023-03-12T20:16:05;12.80;99.90
14771;DHT22;7477;45.222;5.688;2023-03-12T20:19:25;12.90;99.90
14771;DHT22;7477;45.222;5.688;2023-03-12T20:22:45;12.90;99.90
14771;DHT22;7477;45.222;5.688;2023-03-12T20:26:04;12.80;99.90
14771;DHT22;7477;45.222;5.688;2023-03-12T20:29:24;12.80;99.90
14771;DHT22;7477;45.222;5.688;2023-03-12T20:32:43;12.70;99.90
14771;DHT22;7477;45.222;5.688;2023-03-12T20:36:07;12.60;99.90
14771;DHT22;7477;45.222;5.688;2023-03-12T20:39:27;12.60;99.90
14771;DHT22;7477;45.222;5.688;2023-03-12T20:42:46;12.50;99.90
14771;DHT22;7477;45.222;5.688;2023-03-12T20:46:05;12.50;99.90
14771;DHT22;7477;45.222;5.688;2023-03-12T20:49:24;12.40;99.90
14771;DHT22;7477;45.222;5.688;2023-03-12T20:52:44;12.40;99.90
14771;DHT22;7477;45.222;5.688;2023-03-12T20:56:03;12.30;99.90
14771;DHT22;7477;45.222;5.688;2023-03-12T20:59:23;12.30;99.90
14771;DHT22;7477;45.222;5.688;2023-03-12T21:02:42;12.30;99.90
14771;DHT22;7477;45.222;5.688;2023-03-12T21:06:02;12.30;99.90
14771;DHT22;7477;45.222;5.688;2023-03-12T21:09:21;12.30;99.90
14771;DHT22;7477;45.222;5.688;2023-03-12T21:12:41;12.30;99.90
14771;DHT22;7477;45.222;5.688;2023-03-12T21:16:00;12.20;99.90
14771;DHT22;7477;45.222;5.688;2023-03-12T21:19:22;12.40;99.90
14771;DHT22;7477;45.222;5.688;2023-03-12T21:22:42;12.40;99.90
14771;DHT22;7477;45.222;5.688;2023-03-12T21:26:04;12.50;99.90
14771;DHT22;7477;45.222;5.688;2023-03-12T21:29:23;12.50;99.90
14771;DHT22;7477;45.222;5.688;2023-03-12T21:32:43;12.50;99.90
14771;DHT22;7477;45.222;5.688;2023-03-12T21:36:06;12.40;99.90
14771;DHT22;7477;45.222;5.688;2023-03-12T21:39:26;12.30;99.90
14771;DHT22;7477;45.222;5.688;2023-03-12T21:42:45;12.30;99.90
14771;DHT22;7477;45.222;5.688;2023-03-12T21:46:06;12.40;99.90
14771;DHT22;7477;45.222;5.688;2023-03-12T21:49:26;12.30;99.90
14771;DHT22;7477;45.222;5.688;2023-03-12T21:52:46;12.30;99.90
14771;DHT22;7477;45.222;5.688;2023-03-12T21:56:09;12.40;99.90
14771;DHT22;7477;45.222;5.688;2023-03-12T21:59:29;12.30;99.90
14771;DHT22;7477;45.222;5.688;2023-03-12T22:02:48;12.30;99.90
14771;DHT22;7477;45.222;5.688;2023-03-12T22:06:09;12.20;99.90
14771;DHT22;7477;45.222;5.688;2023-03-12T22:09:29;12.20;99.90
14771;DHT22;7477;45.222;5.688;2023-03-12T22:12:48;12.20;99.90
14771;DHT22;7477;45.222;5.688;2023-03-12T22:16:10;12.10;99.90
14771;DHT22;7477;45.222;5.688;2023-03-12T22:19:29;12.10;99.90
14771;DHT22;7477;45.222;5.688;2023-03-12T22:22:48;12.10;99.90
14771;DHT22;7477;45.222;5.688;2023-03-12T22:26:07;12.00;99.90
14771;DHT22;7477;45.222;5.688;2023-03-12T22:29:27;12.00;99.90
14771;DHT22;7477;45.222;5.688;2023-03-12T22:32:47;12.20;99.90
14771;DHT22;7477;45.222;5.688;2023-03-12T22:36:08;12.10;99.90
14771;DHT22;7477;45.222;5.688;2023-03-12T22:39:27;12.10;99.90
14771;DHT22;7477;45.222;5.688;2023-03-12T22:42:51;12.00;99.90
14771;DHT22;7477;45.222;5.688;2023-03-12T22:46:12;11.90;99.90
14771;DHT22;7477;45.222;5.688;2023-03-12T22:49:32;11.90;99.90
14771;DHT22;7477;45.222;5.688;2023-03-12T22:52:51;11.90;99.90
14771;DHT22;7477;45.222;5.688;2023-03-12T22:56:12;11.90;99.90
14771;DHT22;7477;45.222;5.688;2023-03-12T22:59:31;11.90;99.90
14771;DHT22;7477;45.222;5.688;2023-03-12T23:02:51;11.90;99.90
14771;DHT22;7477;45.222;5.688;2023-03-12T23:06:19;12.00;99.90
14771;DHT22;7477;45.222;5.688;2023-03-12T23:09:39;12.00;99.90
14771;DHT22;7477;45.222;5.688;2023-03-12T23:12:58;12.00;99.90
14771;DHT22;7477;45.222;5.688;2023-03-12T23:16:20;12.00;99.90
14771;DHT22;7477;45.222;5.688;2023-03-12T23:19:39;12.10;99.90
14771;DHT22;7477;45.222;5.688;2023-03-12T23:23:00;12.00;99.90